sensor_id;sensor_type;location;lat;lon;timestamp;pressure;altitude;pressure_sealevel;temperature;humidity
19748;BME280;10032;51.386;12.516;2022-10-04T00:03:06;100891.69;;;14.12;100.00
19748;BME280;10032;51.386;12.516;2022-10-04T00:05:33;100892.75;;;14.11;100.00
19748;BME280;10032;51.386;12.516;2022-10-04T00:08:49;100899.53;;;14.09;100.00
19748;BME280;10032;51.386;12.516;2022-10-04T00:10:47;100896.50;;;14.05;100.00
19748;BME280;10032;51.386;12.516;2022-10-04T00:13:21;100897.09;;;14.07;100.00
19748;BME280;10032;51.386;12.516;2022-10-04T00:15:48;100892.06;;;13.99;100.00
19748;BME280;10032;51.386;12.516;2022-10-04T00:18:22;100901.56;;;13.97;100.00
19748;BME280;10032;51.386;12.516;2022-10-04T00:28:50;100898.41;;;13.83;100.00
19748;BME280;10032;51.386;12.516;2022-10-04T00:31:26;100905.69;;;13.78;100.00
19748;BME280;10032;51.386;12.516;2022-10-04T00:34:43;100894.47;;;13.74;100.00
19748;BME280;10032;51.386;12.516;2022-10-04T00:36:54;100895.53;;;13.73;100.00
19748;BME280;10032;51.386;12.516;2022-10-04T00:39:26;100902.56;;;13.69;100.00
19748;BME280;10032;51.386;12.516;2022-10-04T00:44:48;100894.91;;;13.66;100.00
19748;BME280;10032;51.386;12.516;2022-10-04T00:47:35;100891.63;;;13.64;100.00
19748;BME280;10032;51.386;12.516;2022-10-04T00:52:59;100905.16;;;13.59;100.00
19748;BME280;10032;51.386;12.516;2022-10-04T00:55:31;100903.00;;;13.61;100.00
19748;BME280;10032;51.386;12.516;2022-10-04T00:58:02;100906.28;;;13.63;100.00
19748;BME280;10032;51.386;12.516;2022-10-04T01:00:30;100898.41;;;13.62;100.00
19748;BME280;10032;51.386;12.516;2022-10-04T01:03:02;100906.81;;;13.60;100.00
19748;BME280;10032;51.386;12.516;2022-10-04T01:05:35;100905.16;;;13.59;100.00
19748;BME280;10032;51.386;12.516;2022-10-04T01:08:13;100900.69;;;13.53;100.00
19748;BME280;10032;51.386;12.516;2022-10-04T01:11:05;100900.22;;;13.56;100.00
19748;BME280;10032;51.386;12.516;2022-10-04T01:16:08;100897.84;;;13.43;100.00
19748;BME280;10032;51.386;12.516;2022-10-04T01:18:35;100891.81;;;13.41;100.00
19748;BME280;10032;51.386;12.516;2022-10-04T01:21:06;100893.91;;;13.34;100.00
19748;BME280;10032;51.386;12.516;2022-10-04T01:23:33;100900.41;;;13.33;100.00
19748;BME280;10032;51.386;12.516;2022-10-04T01:25:59;100896.53;;;13.29;100.00
19748;BME280;10032;51.386;12.516;2022-10-04T01:28:25;100900.06;;;13.30;100.00
19748;BME280;10032;51.386;12.516;2022-10-04T01:30:51;100898.66;;;13.27;100.00
19748;BME280;10032;51.386;12.516;2022-10-04T01:33:17;100898.94;;;13.26;100.00
19748;BME280;10032;51.386;12.516;2022-10-04T01:35:42;100894.06;;;13.28;100.00
19748;BME280;10032;51.386;12.516;2022-10-04T01:38:09;100894.31;;;13.26;100.00
19748;BME280;10032;51.386;12.516;2022-10-04T01:40:41;100882.28;;;13.22;100.00
19748;BME280;10032;51.386;12.516;2022-10-04T01:43:14;100887.72;;;13.22;100.00
19748;BME280;10032;51.386;12.516;2022-10-04T01:45:50;100889.06;;;13.20;100.00
19748;BME280;10032;51.386;12.516;2022-10-04T01:48:21;100893.66;;;13.19;100.00
19748;BME280;10032;51.386;12.516;2022-10-04T01:51:01;100893.66;;;13.19;100.00
19748;BME280;10032;51.386;12.516;2022-10-04T01:53:31;100888.78;;;13.21;100.00
19748;BME280;10032;51.386;12.516;2022-10-04T01:56:05;100889.38;;;13.23;100.00
19748;BME280;10032;51.386;12.516;2022-10-04T01:58:49;100883.34;;;13.21;100.00
19748;BME280;10032;51.386;12.516;2022-10-04T02:01:42;100886.97;;;13.10;100.00
19748;BME280;10032;51.386;12.516;2022-10-04T02:04:12;100873.88;;;13.07;100.00
19748;BME280;10032;51.386;12.516;2022-10-04T02:06:41;100879.88;;;13.09;100.00
19748;BME280;10032;51.386;12.516;2022-10-04T02:09:11;100882.03;;;13.07;100.00
19748;BME280;10032;51.386;12.516;2022-10-04T02:11:37;100874.44;;;13.09;100.00
19748;BME280;10032;51.386;12.516;2022-10-04T02:14:11;100871.25;;;13.12;100.00
19748;BME280;10032;51.386;12.516;2022-10-04T02:16:40;100870.09;;;13.08;100.00
19748;BME280;10032;51.386;12.516;2022-10-04T02:19:09;100861.41;;;13.11;100.00
19748;BME280;10032;51.386;12.516;2022-10-04T02:21:35;100868.13;;;13.04;100.00
19748;BME280;10032;51.386;12.516;2022-10-04T02:24:01;100860.69;;;12.99;100.00
19748;BME280;10032;51.386;12.516;2022-10-04T02:26:27;100859.03;;;12.98;100.00
19748;BME280;10032;51.386;12.516;2022-10-04T02:28:52;100866.72;;;13.01;100.00
19748;BME280;10032;51.386;12.516;2022-10-04T02:31:20;100855.31;;;13.04;100.00
19748;BME280;10032;51.386;12.516;2022-10-04T02:34:05;100860.19;;;13.02;100.00
19748;BME280;10032;51.386;12.516;2022-10-04T02:36:31;100856.88;;;13.00;100.00
19748;BME280;10032;51.386;12.516;2022-10-04T02:41:51;100845.88;;;12.95;100.00
19748;BME280;10032;51.386;12.516;2022-10-04T02:47:12;100845.16;;;12.83;100.00
19748;BME280;10032;51.386;12.516;2022-10-04T02:49:47;100853.56;;;12.82;100.00
19748;BME280;10032;51.386;12.516;2022-10-04T02:52:26;100842.88;;;12.75;100.00
19748;BME280;10032;51.386;12.516;2022-10-04T02:55:05;100849.34;;;12.74;100.00
19748;BME280;10032;51.386;12.516;2022-10-04T02:57:34;100846.06;;;12.72;100.00
19748;BME280;10032;51.386;12.516;2022-10-04T03:02:40;100842.69;;;12.65;100.00
19748;BME280;10032;51.386;12.516;2022-10-04T03:05:08;100839.03;;;12.60;100.00
19748;BME280;10032;51.386;12.516;2022-10-04T03:07:35;100840.34;;;12.57;100.00
19748;BME280;10032;51.386;12.516;2022-10-04T03:10:05;100840.88;;;12.54;100.00
19748;BME280;10032;51.386;12.516;2022-10-04T03:12:32;100844.06;;;12.51;100.00
19748;BME280;10032;51.386;12.516;2022-10-04T03:14:59;100838.19;;;12.43;100.00
19748;BME280;10032;51.386;12.516;2022-10-04T03:17:24;100840.00;;;12.37;100.00
19748;BME280;10032;51.386;12.516;2022-10-04T03:19:50;100848.41;;;12.36;100.00
19748;BME280;10032;51.386;12.516;2022-10-04T03:22:16;100839.94;;;12.32;100.00
19748;BME280;10032;51.386;12.516;2022-10-04T03:24:48;100846.91;;;12.28;100.00
19748;BME280;10032;51.386;12.516;2022-10-04T03:27:32;100847.38;;;12.25;100.00
19748;BME280;10032;51.386;12.516;2022-10-04T03:29:58;100848.69;;;12.23;100.00
19748;BME280;10032;51.386;12.516;2022-10-04T03:32:27;100848.59;;;12.18;100.00
19748;BME280;10032;51.386;12.516;2022-10-04T03:34:59;100839.53;;;12.12;100.00
19748;BME280;10032;51.386;12.516;2022-10-04T03:37:28;100846.53;;;12.08;100.00
19748;BME280;10032;51.386;12.516;2022-10-04T03:39:54;100839.34;;;12.02;100.00
19748;BME280;10032;51.386;12.516;2022-10-04T03:42:23;100840.31;;;11.96;100.00
19748;BME280;10032;51.386;12.516;2022-10-04T03:44:52;100834.03;;;11.96;100.00
19748;BME280;10032;51.386;12.516;2022-10-04T03:47:24;100840.31;;;11.96;100.00
19748;BME280;10032;51.386;12.516;2022-10-04T03:49:54;100838.91;;;11.94;100.00
19748;BME280;10032;51.386;12.516;2022-10-04T03:52:34;100844.81;;;11.91;100.00
19748;BME280;10032;51.386;12.516;2022-10-04T03:55:02;100843.91;;;11.85;100.00
19748;BME280;10032;51.386;12.516;2022-10-04T03:57:30;100846.63;;;11.85;100.00
19748;BME280;10032;51.386;12.516;2022-10-04T03:59:56;100837.88;;;11.83;100.00
19748;BME280;10032;51.386;12.516;2022-10-04T04:02:48;100841.66;;;11.82;100.00
19748;BME280;10032;51.386;12.516;2022-10-04T04:05:24;100837.19;;;11.76;100.00
19748;BME280;10032;51.386;12.516;2022-10-04T04:08:04;100831.66;;;11.71;100.00
19748;BME280;10032;51.386;12.516;2022-10-04T04:10:35;100833.78;;;11.69;100.00
19748;BME280;10032;51.386;12.516;2022-10-04T04:13:40;100844.88;;;11.68;100.00
19748;BME280;10032;51.386;12.516;2022-10-04T04:16:09;100833.41;;;11.66;100.00
19748;BME280;10032;51.386;12.516;2022-10-04T04:18:37;100836.97;;;11.66;100.00
19748;BME280;10032;51.386;12.516;2022-10-04T04:21:05;100834.25;;;11.66;100.00
19748;BME280;10032;51.386;12.516;2022-10-04T04:23:36;100842.41;;;11.66;100.00
19748;BME280;10032;51.386;12.516;2022-10-04T04:26:24;100833.56;;;11.59;100.00
19748;BME280;10032;51.386;12.516;2022-10-04T04:29:01;100844.63;;;11.58;100.00
19748;BME280;10032;51.386;12.516;2022-10-04T04:31:36;100839.44;;;11.56;100.00
19748;BME280;10032;51.386;12.516;2022-10-04T04:34:15;100838.38;;;11.57;100.00
19748;BME280;10032;51.386;12.516;2022-10-04T04:36:41;100836.72;;;11.56;100.00
19748;BME280;10032;51.386;12.516;2022-10-04T04:41:52;100832.13;;;11.57;100.00
19748;BME280;10032;51.386;12.516;2022-10-04T04:44:17;100838.38;;;11.57;100.00
19748;BME280;10032;51.386;12.516;2022-10-04T04:46:45;100831.19;;;11.51;100.00
19748;BME280;10032;51.386;12.516;2022-10-04T04:49:11;100833.78;;;11.46;100.00
19748;BME280;10032;51.386;12.516;2022-10-04T04:51:40;100839.81;;;11.48;100.00
19748;BME280;10032;51.386;12.516;2022-10-04T04:54:06;100834.63;;;11.47;100.00
19748;BME280;10032;51.386;12.516;2022-10-04T04:56:33;100838.63;;;11.44;100.00
19748;BME280;10032;51.386;12.516;2022-10-04T04:59:02;100840.41;;;11.39;100.00
19748;BME280;10032;51.386;12.516;2022-10-04T05:01:45;100834.63;;;11.35;100.00
19748;BME280;10032;51.386;12.516;2022-10-04T05:06:44;100837.34;;;11.35;100.00
19748;BME280;10032;51.386;12.516;2022-10-04T05:11:51;100838.41;;;11.34;100.00
19748;BME280;10032;51.386;12.516;2022-10-04T05:14:19;100842.44;;;11.32;100.00
19748;BME280;10032;51.386;12.516;2022-10-04T05:16:54;100845.47;;;11.35;100.00
19748;BME280;10032;51.386;12.516;2022-10-04T05:21:50;100836.53;;;11.35;100.00
19748;BME280;10032;51.386;12.516;2022-10-04T05:24:26;100836.28;;;11.36;100.00
19748;BME280;10032;51.386;12.516;2022-10-04T05:26:55;100844.19;;;11.38;100.00
19748;BME280;10032;51.386;12.516;2022-10-04T05:29:25;100849.97;;;11.41;100.00
19748;BME280;10032;51.386;12.516;2022-10-04T05:32:02;100843.00;;;11.45;100.00
19748;BME280;10032;51.386;12.516;2022-10-04T05:34:40;100836.50;;;11.46;100.00
19748;BME280;10032;51.386;12.516;2022-10-04T05:40:05;100828.25;;;11.53;100.00
19748;BME280;10032;51.386;12.516;2022-10-04T05:42:40;100826.94;;;11.55;100.00
19748;BME280;10032;51.386;12.516;2022-10-04T05:45:29;100831.66;;;11.60;100.00
19748;BME280;10032;51.386;12.516;2022-10-04T05:47:56;100839.56;;;11.61;100.00
19748;BME280;10032;51.386;12.516;2022-10-04T06:06:59;100829.06;;;12.04;100.00
19748;BME280;10032;51.386;12.516;2022-10-04T06:23:15;100843.00;;;12.52;100.00
19748;BME280;10032;51.386;12.516;2022-10-04T06:25:57;100844.47;;;12.60;100.00
19748;BME280;10032;51.386;12.516;2022-10-04T06:28:34;100842.09;;;12.63;100.00
19748;BME280;10032;51.386;12.516;2022-10-04T06:31:35;100843.00;;;12.69;100.00
19748;BME280;10032;51.386;12.516;2022-10-04T06:40:00;100851.59;;;12.77;100.00
19748;BME280;10032;51.386;12.516;2022-10-04T06:48:29;100867.09;;;12.93;100.00
19748;BME280;10032;51.386;12.516;2022-10-04T06:56:54;100876.00;;;13.05;100.00
19748;BME280;10032;51.386;12.516;2022-10-04T06:59:52;100883.13;;;13.06;100.00
19748;BME280;10032;51.386;12.516;2022-10-04T07:02:27;100876.09;;;13.10;100.00
19748;BME280;10032;51.386;12.516;2022-10-04T07:05:02;100873.78;;;13.19;100.00
19748;BME280;10032;51.386;12.516;2022-10-04T07:07:33;100871.97;;;13.24;100.00
19748;BME280;10032;51.386;12.516;2022-10-04T07:10:32;100858.50;;;13.34;100.00
19748;BME280;10032;51.386;12.516;2022-10-04T07:15:32;100873.34;;;13.43;100.00
19748;BME280;10032;51.386;12.516;2022-10-04T07:18:04;100873.91;;;13.45;100.00
19748;BME280;10032;51.386;12.516;2022-10-04T07:20:34;100874.31;;;13.54;100.00
19748;BME280;10032;51.386;12.516;2022-10-04T07:23:05;100875.78;;;13.61;100.00
19748;BME280;10032;51.386;12.516;2022-10-04T07:25:50;100882.38;;;13.65;100.00
19748;BME280;10032;51.386;12.516;2022-10-04T07:28:31;100873.25;;;13.76;100.00
19748;BME280;10032;51.386;12.516;2022-10-04T07:33:51;100882.25;;;13.98;100.00
19748;BME280;10032;51.386;12.516;2022-10-04T07:36:44;100883.41;;;14.02;100.00
19748;BME280;10032;51.386;12.516;2022-10-04T07:39:24;100878.81;;;14.08;100.00
19748;BME280;10032;51.386;12.516;2022-10-04T07:42:18;100876.22;;;14.18;100.00
19748;BME280;10032;51.386;12.516;2022-10-04T07:44:53;100885.81;;;14.20;100.00
19748;BME280;10032;51.386;12.516;2022-10-04T07:47:25;100880.97;;;14.27;100.00
19748;BME280;10032;51.386;12.516;2022-10-04T07:49:53;100885.94;;;14.30;100.00
19748;BME280;10032;51.386;12.516;2022-10-04T07:55:17;100891.63;;;14.50;100.00
19748;BME280;10032;51.386;12.516;2022-10-04T08:00:46;100884.78;;;14.79;100.00
19748;BME280;10032;51.386;12.516;2022-10-04T08:09:20;100887.75;;;15.04;100.00
19748;BME280;10032;51.386;12.516;2022-10-04T08:11:59;100888.66;;;15.15;100.00
19748;BME280;10032;51.386;12.516;2022-10-04T08:19:52;100886.97;;;15.40;100.00
19748;BME280;10032;51.386;12.516;2022-10-04T08:22:26;100893.00;;;15.47;100.00
19748;BME280;10032;51.386;12.516;2022-10-04T08:33:30;100896.75;;;15.78;100.00
19748;BME280;10032;51.386;12.516;2022-10-04T08:38:58;100895.97;;;15.82;100.00
19748;BME280;10032;51.386;12.516;2022-10-04T09:02:14;100910.56;;;16.08;100.00
19748;BME280;10032;51.386;12.516;2022-10-04T09:05:08;100905.69;;;16.20;100.00
19748;BME280;10032;51.386;12.516;2022-10-04T09:07:53;100918.31;;;16.31;100.00
19748;BME280;10032;51.386;12.516;2022-10-04T09:10:46;100916.97;;;16.38;100.00
19748;BME280;10032;51.386;12.516;2022-10-04T09:13:47;100917.31;;;16.47;100.00
19748;BME280;10032;51.386;12.516;2022-10-04T09:16:45;100909.38;;;16.50;100.00
19748;BME280;10032;51.386;12.516;2022-10-04T09:19:22;100917.63;;;16.55;100.00
19748;BME280;10032;51.386;12.516;2022-10-04T09:24:59;100918.19;;;16.67;100.00
19748;BME280;10032;51.386;12.516;2022-10-04T09:27:57;100920.38;;;16.80;100.00
19748;BME280;10032;51.386;12.516;2022-10-04T09:33:46;100921.50;;;16.94;100.00
19748;BME280;10032;51.386;12.516;2022-10-04T09:42:31;100923.69;;;17.07;100.00
19748;BME280;10032;51.386;12.516;2022-10-04T09:48:17;100913.84;;;17.26;100.00
19748;BME280;10032;51.386;12.516;2022-10-04T09:51:19;100913.00;;;17.36;100.00
19748;BME280;10032;51.386;12.516;2022-10-04T09:54:21;100906.19;;;17.38;100.00
19748;BME280;10032;51.386;12.516;2022-10-04T09:57:12;100901.53;;;17.44;100.00
19748;BME280;10032;51.386;12.516;2022-10-04T10:00:00;100907.25;;;17.62;100.00
19748;BME280;10032;51.386;12.516;2022-10-04T10:08:12;100907.22;;;17.82;100.00
19748;BME280;10032;51.386;12.516;2022-10-04T10:11:03;100900.34;;;17.90;100.00
19748;BME280;10032;51.386;12.516;2022-10-04T10:25:54;100889.59;;;18.62;100.00
19748;BME280;10032;51.386;12.516;2022-10-04T10:37:01;100885.94;;;18.76;100.00
19748;BME280;10032;51.386;12.516;2022-10-04T10:53:15;100885.97;;;19.67;100.00
19748;BME280;10032;51.386;12.516;2022-10-04T11:09:46;100876.34;;;20.16;100.00
19748;BME280;10032;51.386;12.516;2022-10-04T11:37:16;100873.31;;;20.73;100.00
19748;BME280;10032;51.386;12.516;2022-10-04T11:40:22;100874.06;;;20.79;100.00
19748;BME280;10032;51.386;12.516;2022-10-04T12:10:43;100832.06;;;21.05;95.73
19748;BME280;10032;51.386;12.516;2022-10-04T12:24:36;100828.06;;;20.79;94.97
19748;BME280;10032;51.386;12.516;2022-10-04T12:27:29;100824.03;;;20.90;94.85
19748;BME280;10032;51.386;12.516;2022-10-04T12:30:31;100826.41;;;20.78;90.88
19748;BME280;10032;51.386;12.516;2022-10-04T12:33:15;100830.69;;;20.89;93.19
19748;BME280;10032;51.386;12.516;2022-10-04T12:35:53;100830.22;;;21.01;92.25
19748;BME280;10032;51.386;12.516;2022-10-04T12:52:19;100816.78;;;21.26;85.88
19748;BME280;10032;51.386;12.516;2022-10-04T12:54:55;100818.22;;;21.37;87.11
19748;BME280;10032;51.386;12.516;2022-10-04T13:00:20;100805.03;;;21.34;82.84
19748;BME280;10032;51.386;12.516;2022-10-04T13:02:52;100807.47;;;21.22;82.99
19748;BME280;10032;51.386;12.516;2022-10-04T13:05:42;100808.41;;;21.18;82.06
19748;BME280;10032;51.386;12.516;2022-10-04T13:13:57;100809.81;;;21.15;81.21
19748;BME280;10032;51.386;12.516;2022-10-04T13:16:48;100807.38;;;21.14;80.91
19748;BME280;10032;51.386;12.516;2022-10-04T13:19:29;100803.28;;;21.11;80.73
19748;BME280;10032;51.386;12.516;2022-10-04T13:24:52;100795.38;;;21.05;81.27
19748;BME280;10032;51.386;12.516;2022-10-04T13:51:49;100790.72;;;20.87;80.76
19748;BME280;10032;51.386;12.516;2022-10-04T13:55:06;100783.75;;;20.76;79.72
19748;BME280;10032;51.386;12.516;2022-10-04T14:12:09;100770.25;;;20.42;79.38
19748;BME280;10032;51.386;12.516;2022-10-04T14:20:39;100760.75;;;20.35;79.17
19748;BME280;10032;51.386;12.516;2022-10-04T14:23:47;100764.19;;;20.27;79.07
19748;BME280;10032;51.386;12.516;2022-10-04T14:26:55;100761.66;;;20.30;78.83
19748;BME280;10032;51.386;12.516;2022-10-04T14:32:29;100755.38;;;20.25;79.39
19748;BME280;10032;51.386;12.516;2022-10-04T15:00:07;100718.59;;;19.97;80.71
19748;BME280;10032;51.386;12.516;2022-10-04T15:02:43;100708.59;;;19.88;81.00
19748;BME280;10032;51.386;12.516;2022-10-04T15:08:36;100708.28;;;19.89;83.00
19748;BME280;10032;51.386;12.516;2022-10-04T15:11:08;100697.06;;;19.86;83.34
19748;BME280;10032;51.386;12.516;2022-10-04T15:16:32;100689.47;;;19.78;83.92
19748;BME280;10032;51.386;12.516;2022-10-04T15:19:08;100691.28;;;19.69;83.93
19748;BME280;10032;51.386;12.516;2022-10-04T15:38:28;100690.63;;;19.53;87.56
19748;BME280;10032;51.386;12.516;2022-10-04T15:41:00;100689.31;;;19.51;88.04
19748;BME280;10032;51.386;12.516;2022-10-04T15:46:46;100695.69;;;19.46;88.95
19748;BME280;10032;51.386;12.516;2022-10-04T15:55:22;100692.34;;;19.26;91.78
19748;BME280;10032;51.386;12.516;2022-10-04T16:00:47;100702.31;;;19.22;93.63
19748;BME280;10032;51.386;12.516;2022-10-04T16:06:20;100694.16;;;19.12;94.88
19748;BME280;10032;51.386;12.516;2022-10-04T16:09:03;100691.81;;;19.00;96.36
19748;BME280;10032;51.386;12.516;2022-10-04T16:14:39;100697.97;;;18.92;98.71
19748;BME280;10032;51.386;12.516;2022-10-04T16:31:25;100693.59;;;18.29;100.00
19748;BME280;10032;51.386;12.516;2022-10-04T16:36:44;100670.75;;;18.00;100.00
19748;BME280;10032;51.386;12.516;2022-10-04T16:39:11;100671.69;;;17.86;100.00
19748;BME280;10032;51.386;12.516;2022-10-04T16:42:12;100678.63;;;17.73;100.00
19748;BME280;10032;51.386;12.516;2022-10-04T16:49:52;100682.88;;;17.46;100.00
19748;BME280;10032;51.386;12.516;2022-10-04T16:52:30;100682.59;;;17.37;100.00
19748;BME280;10032;51.386;12.516;2022-10-04T16:55:31;100672.28;;;17.24;100.00
19748;BME280;10032;51.386;12.516;2022-10-04T17:01:25;100695.91;;;17.00;100.00
19748;BME280;10032;51.386;12.516;2022-10-04T17:04:59;100693.75;;;16.92;100.00
19748;BME280;10032;51.386;12.516;2022-10-04T17:07:00;100701.41;;;16.85;100.00
19748;BME280;10032;51.386;12.516;2022-10-04T17:09:36;100705.25;;;16.79;100.00
19748;BME280;10032;51.386;12.516;2022-10-04T17:15:23;100710.22;;;16.62;100.00
19748;BME280;10032;51.386;12.516;2022-10-04T17:21:03;100713.22;;;16.46;100.00
19748;BME280;10032;51.386;12.516;2022-10-04T17:31:58;100709.09;;;16.08;100.00
19748;BME280;10032;51.386;12.516;2022-10-04T17:34:34;100711.81;;;16.03;100.00
19748;BME280;10032;51.386;12.516;2022-10-04T17:48:14;100716.06;;;15.59;100.00
19748;BME280;10032;51.386;12.516;2022-10-04T17:51:55;100712.78;;;15.52;100.00
19748;BME280;10032;51.386;12.516;2022-10-04T17:54:17;100710.56;;;15.44;100.00
19748;BME280;10032;51.386;12.516;2022-10-04T17:59:39;100694.09;;;15.29;100.00
19748;BME280;10032;51.386;12.516;2022-10-04T18:04:55;100695.38;;;15.12;100.00
19748;BME280;10032;51.386;12.516;2022-10-04T18:07:36;100697.78;;;15.03;100.00
19748;BME280;10032;51.386;12.516;2022-10-04T18:10:22;100710.88;;;15.01;100.00
19748;BME280;10032;51.386;12.516;2022-10-04T18:12:59;100719.63;;;15.03;100.00
19748;BME280;10032;51.386;12.516;2022-10-04T18:15:31;100701.03;;;15.00;100.00
19748;BME280;10032;51.386;12.516;2022-10-04T18:18:17;100696.41;;;15.01;100.00
19748;BME280;10032;51.386;12.516;2022-10-04T18:21:03;100688.78;;;15.03;100.00
19748;BME280;10032;51.386;12.516;2022-10-04T18:23:34;100683.56;;;14.96;100.00
19748;BME280;10032;51.386;12.516;2022-10-04T18:26:10;100690.66;;;14.97;100.00
19748;BME280;10032;51.386;12.516;2022-10-04T18:28:41;100684.09;;;14.93;100.00
19748;BME280;10032;51.386;12.516;2022-10-04T18:31:28;100687.31;;;14.85;100.00
19748;BME280;10032;51.386;12.516;2022-10-04T18:33:57;100695.47;;;14.80;100.00
19748;BME280;10032;51.386;12.516;2022-10-04T18:36:30;100695.13;;;14.72;100.00
19748;BME280;10032;51.386;12.516;2022-10-04T18:41:36;100687.06;;;14.45;100.00
19748;BME280;10032;51.386;12.516;2022-10-04T18:44:30;100692.97;;;14.37;100.00
19748;BME280;10032;51.386;12.516;2022-10-04T18:47:16;100699.44;;;14.26;100.00
19748;BME280;10032;51.386;12.516;2022-10-04T18:49:51;100699.31;;;14.16;100.00
19748;BME280;10032;51.386;12.516;2022-10-04T18:53:09;100697.09;;;14.08;100.00
19748;BME280;10032;51.386;12.516;2022-10-04T18:55:40;100709.22;;;13.96;100.00
19748;BME280;10032;51.386;12.516;2022-10-04T19:01:13;100705.53;;;13.80;100.00
19748;BME280;10032;51.386;12.516;2022-10-04T19:04:13;100712.50;;;13.71;100.00
19748;BME280;10032;51.386;12.516;2022-10-04T19:06:45;100718.47;;;13.68;100.00
19748;BME280;10032;51.386;12.516;2022-10-04T19:11:53;100722.97;;;13.58;100.00
19748;BME280;10032;51.386;12.516;2022-10-04T19:17:04;100734.56;;;13.48;100.00
19748;BME280;10032;51.386;12.516;2022-10-04T19:20:03;100726.59;;;13.42;100.00
19748;BME280;10032;51.386;12.516;2022-10-04T19:22:48;100731.16;;;13.36;100.00
19748;BME280;10032;51.386;12.516;2022-10-04T19:28:28;100729.91;;;13.22;100.00
19748;BME280;10032;51.386;12.516;2022-10-04T19:33:49;100741.69;;;13.11;100.00
19748;BME280;10032;51.386;12.516;2022-10-04T19:36:31;100743.28;;;13.07;100.00
19748;BME280;10032;51.386;12.516;2022-10-04T19:39:16;100747.34;;;13.05;100.00
19748;BME280;10032;51.386;12.516;2022-10-04T19:41:58;100751.38;;;13.02;100.00
19748;BME280;10032;51.386;12.516;2022-10-04T19:47:57;100744.69;;;12.93;100.00
19748;BME280;10032;51.386;12.516;2022-10-04T19:50:32;100758.28;;;12.93;100.00
19748;BME280;10032;51.386;12.516;2022-10-04T19:58:29;100749.66;;;12.96;100.00
19748;BME280;10032;51.386;12.516;2022-10-04T20:00:57;100757.84;;;12.96;100.00
19748;BME280;10032;51.386;12.516;2022-10-04T20:03:23;100761.56;;;12.95;100.00
19748;BME280;10032;51.386;12.516;2022-10-04T20:05:50;100767.38;;;12.99;100.00
19748;BME280;10032;51.386;12.516;2022-10-04T20:11:25;100754.47;;;12.94;100.00
19748;BME280;10032;51.386;12.516;2022-10-04T20:19:18;100757.66;;;12.86;100.00
19748;BME280;10032;51.386;12.516;2022-10-04T20:21:46;100763.34;;;12.85;100.00
19748;BME280;10032;51.386;12.516;2022-10-04T20:24:17;100767.03;;;12.79;100.00
19748;BME280;10032;51.386;12.516;2022-10-04T20:26:44;100758.81;;;12.74;100.00
19748;BME280;10032;51.386;12.516;2022-10-04T20:32:51;100765.56;;;12.71;100.00
19748;BME280;10032;51.386;12.516;2022-10-04T20:34:59;100751.91;;;12.66;100.00
19748;BME280;10032;51.386;12.516;2022-10-04T20:40:10;100759.50;;;12.64;100.00
19748;BME280;10032;51.386;12.516;2022-10-04T20:42:38;100765.72;;;12.65;100.00
19748;BME280;10032;51.386;12.516;2022-10-04T20:47:45;100771.69;;;12.62;100.00
19748;BME280;10032;51.386;12.516;2022-10-04T20:52:44;100771.69;;;12.62;100.00
19748;BME280;10032;51.386;12.516;2022-10-04T20:55:20;100768.88;;;12.57;100.00
19748;BME280;10032;51.386;12.516;2022-10-04T20:57:52;100771.00;;;12.55;100.00
19748;BME280;10032;51.386;12.516;2022-10-04T21:00:22;100766.88;;;12.52;100.00
19748;BME280;10032;51.386;12.516;2022-10-04T21:03:05;100758.72;;;12.52;100.00
19748;BME280;10032;51.386;12.516;2022-10-04T21:05:30;100765.25;;;12.51;100.00
19748;BME280;10032;51.386;12.516;2022-10-04T21:08:22;100757.84;;;12.47;100.00
19748;BME280;10032;51.386;12.516;2022-10-04T21:11:11;100760.78;;;12.45;100.00
19748;BME280;10032;51.386;12.516;2022-10-04T21:14:08;100746.63;;;12.43;100.00
19748;BME280;10032;51.386;12.516;2022-10-04T21:16:47;100748.28;;;12.44;100.00
19748;BME280;10032;51.386;12.516;2022-10-04T21:24:52;100759.47;;;12.48;100.00
19748;BME280;10032;51.386;12.516;2022-10-04T21:27:32;100755.94;;;12.47;100.00
19748;BME280;10032;51.386;12.516;2022-10-04T21:30:02;100758.66;;;12.47;100.00
19748;BME280;10032;51.386;12.516;2022-10-04T21:32:33;100758.66;;;12.47;100.00
19748;BME280;10032;51.386;12.516;2022-10-04T21:34:59;100759.16;;;12.44;100.00
19748;BME280;10032;51.386;12.516;2022-10-04T21:37:25;100759.97;;;12.45;100.00
19748;BME280;10032;51.386;12.516;2022-10-04T21:39:50;100764.59;;;12.44;100.00
19748;BME280;10032;51.386;12.516;2022-10-04T21:42:16;100770.50;;;12.41;100.00
19748;BME280;10032;51.386;12.516;2022-10-04T21:44:41;100766.63;;;12.37;100.00
19748;BME280;10032;51.386;12.516;2022-10-04T21:47:07;100766.38;;;12.39;100.00
19748;BME280;10032;51.386;12.516;2022-10-04T21:49:33;100759.41;;;12.43;100.00
19748;BME280;10032;51.386;12.516;2022-10-04T21:51:58;100756.91;;;12.41;100.00
19748;BME280;10032;51.386;12.516;2022-10-04T21:54:23;100747.97;;;12.41;100.00
19748;BME280;10032;51.386;12.516;2022-10-04T21:56:49;100738.97;;;12.40;100.00